sensor_id;sensor_type;location;lat;lon;timestamp;pressure;altitude;pressure_sealevel;temperature
61390;BMP280;47260;48.274;19.814;2023-04-24T00:00:43;98729.69;;;7.08
61390;BMP280;47260;48.274;19.814;2023-04-24T00:02:16;98724.38;;;7.13
61390;BMP280;47260;48.274;19.814;2023-04-24T00:03:49;98724.91;;;7.23
61390;BMP280;47260;48.274;19.814;2023-04-24T00:05:20;98729.75;;;7.24
61390;BMP280;47260;48.274;19.814;2023-04-24T00:06:52;98728.78;;;7.27
61390;BMP280;47260;48.274;19.814;2023-04-24T00:08:27;98725.88;;;7.31
61390;BMP280;47260;48.274;19.814;2023-04-24T00:09:59;98726.88;;;7.34
61390;BMP280;47260;48.274;19.814;2023-04-24T00:11:30;98722.03;;;7.32
61390;BMP280;47260;48.274;19.814;2023-04-24T00:13:02;98722.28;;;7.34
61390;BMP280;47260;48.274;19.814;2023-04-24T00:14:33;98715.69;;;7.24
61390;BMP280;47260;48.274;19.814;2023-04-24T00:16:05;98718.34;;;7.24
61390;BMP280;47260;48.274;19.814;2023-04-24T00:17:38;98718.31;;;7.18
61390;BMP280;47260;48.274;19.814;2023-04-24T00:19:10;98721.22;;;7.15
61390;BMP280;47260;48.274;19.814;2023-04-24T00:20:43;98720.00;;;7.16
61390;BMP280;47260;48.274;19.814;2023-04-24T00:22:15;98709.56;;;7.12
61390;BMP280;47260;48.274;19.814;2023-04-24T00:23:46;98712.72;;;7.16
61390;BMP280;47260;48.274;19.814;2023-04-24T00:25:17;98710.59;;;7.20
61390;BMP280;47260;48.274;19.814;2023-04-24T00:26:49;98704.03;;;7.21
61390;BMP280;47260;48.274;19.814;2023-04-24T00:28:20;98708.63;;;7.21
61390;BMP280;47260;48.274;19.814;2023-04-24T00:29:52;98706.38;;;7.08
61390;BMP280;47260;48.274;19.814;2023-04-24T00:31:24;98696.47;;;7.14
61390;BMP280;47260;48.274;19.814;2023-04-24T00:32:57;98694.31;;;7.13
61390;BMP280;47260;48.274;19.814;2023-04-24T00:34:29;98704.19;;;7.07
61390;BMP280;47260;48.274;19.814;2023-04-24T00:36:03;98705.66;;;7.08
61390;BMP280;47260;48.274;19.814;2023-04-24T00:37:34;98702.78;;;7.11
61390;BMP280;47260;48.274;19.814;2023-04-24T00:39:06;98697.44;;;7.17
61390;BMP280;47260;48.274;19.814;2023-04-24T00:40:39;98692.34;;;7.13
61390;BMP280;47260;48.274;19.814;2023-04-24T00:42:11;98686.03;;;7.11
61390;BMP280;47260;48.274;19.814;2023-04-24T00:43:42;98691.09;;;7.09
61390;BMP280;47260;48.274;19.814;2023-04-24T00:45:14;98683.59;;;7.07
61390;BMP280;47260;48.274;19.814;2023-04-24T00:46:46;98681.38;;;7.06
61390;BMP280;47260;48.274;19.814;2023-04-24T00:48:23;98690.09;;;7.01
61390;BMP280;47260;48.274;19.814;2023-04-24T00:49:56;98685.25;;;6.99
61390;BMP280;47260;48.274;19.814;2023-04-24T00:51:28;98677.72;;;6.98
61390;BMP280;47260;48.274;19.814;2023-04-24T00:53:01;98681.13;;;7.04
61390;BMP280;47260;48.274;19.814;2023-04-24T00:54:32;98678.97;;;7.02
61390;BMP280;47260;48.274;19.814;2023-04-24T00:56:04;98678.97;;;7.08
61390;BMP280;47260;48.274;19.814;2023-04-24T00:57:36;98673.38;;;7.06
61390;BMP280;47260;48.274;19.814;2023-04-24T00:59:08;98678.97;;;7.08
61390;BMP280;47260;48.274;19.814;2023-04-24T01:00:40;98672.66;;;7.05
61390;BMP280;47260;48.274;19.814;2023-04-24T01:02:12;98673.38;;;7.06
61390;BMP280;47260;48.274;19.814;2023-04-24T01:03:48;98675.78;;;7.04
61390;BMP280;47260;48.274;19.814;2023-04-24T01:05:19;98675.78;;;7.04
61390;BMP280;47260;48.274;19.814;2023-04-24T01:06:51;98675.31;;;7.05
61390;BMP280;47260;48.274;19.814;2023-04-24T01:08:23;98678.44;;;7.04
61390;BMP280;47260;48.274;19.814;2023-04-24T01:09:55;98678.22;;;7.02
61390;BMP280;47260;48.274;19.814;2023-04-24T01:11:29;98679.19;;;6.99
61390;BMP280;47260;48.274;19.814;2023-04-24T01:13:01;98679.19;;;7.04
61390;BMP280;47260;48.274;19.814;2023-04-24T01:14:33;98674.84;;;7.07
61390;BMP280;47260;48.274;19.814;2023-04-24T01:16:04;98676.72;;;6.90
61390;BMP280;47260;48.274;19.814;2023-04-24T01:17:38;98674.97;;;6.81
61390;BMP280;47260;48.274;19.814;2023-04-24T01:19:11;98672.00;;;6.74
61390;BMP280;47260;48.274;19.814;2023-04-24T01:20:43;98668.63;;;6.73
61390;BMP280;47260;48.274;19.814;2023-04-24T01:22:18;98666.97;;;6.76
61390;BMP280;47260;48.274;19.814;2023-04-24T01:23:51;98676.19;;;6.80
61390;BMP280;47260;48.274;19.814;2023-04-24T01:25:23;98665.03;;;6.82
61390;BMP280;47260;48.274;19.814;2023-04-24T01:26:56;98666.25;;;6.81
61390;BMP280;47260;48.274;19.814;2023-04-24T01:28:27;98675.22;;;6.78
61390;BMP280;47260;48.274;19.814;2023-04-24T01:29:59;98673.75;;;6.77
61390;BMP280;47260;48.274;19.814;2023-04-24T01:31:31;98673.00;;;6.76
61390;BMP280;47260;48.274;19.814;2023-04-24T01:33:04;98665.28;;;6.78
61390;BMP280;47260;48.274;19.814;2023-04-24T01:34:36;98676.22;;;6.86
61390;BMP280;47260;48.274;19.814;2023-04-24T01:36:10;98663.59;;;6.92
61390;BMP280;47260;48.274;19.814;2023-04-24T01:37:44;98671.13;;;6.93
61390;BMP280;47260;48.274;19.814;2023-04-24T01:39:15;98665.09;;;6.93
61390;BMP280;47260;48.274;19.814;2023-04-24T01:40:47;98662.66;;;6.89
61390;BMP280;47260;48.274;19.814;2023-04-24T01:42:18;98662.88;;;6.86
61390;BMP280;47260;48.274;19.814;2023-04-24T01:43:51;98660.66;;;6.84
61390;BMP280;47260;48.274;19.814;2023-04-24T01:45:24;98665.03;;;6.82
61390;BMP280;47260;48.274;19.814;2023-04-24T01:46:56;98665.50;;;6.80
61390;BMP280;47260;48.274;19.814;2023-04-24T01:48:28;98664.78;;;6.80
61390;BMP280;47260;48.274;19.814;2023-04-24T01:50:00;98664.81;;;6.85
61390;BMP280;47260;48.274;19.814;2023-04-24T01:51:32;98657.78;;;6.88
61390;BMP280;47260;48.274;19.814;2023-04-24T01:53:05;98663.59;;;6.92
61390;BMP280;47260;48.274;19.814;2023-04-24T01:54:37;98661.44;;;6.96
61390;BMP280;47260;48.274;19.814;2023-04-24T01:56:08;98666.53;;;6.94
61390;BMP280;47260;48.274;19.814;2023-04-24T01:57:41;98659.25;;;6.89
61390;BMP280;47260;48.274;19.814;2023-04-24T01:59:12;98658.00;;;6.84
61390;BMP280;47260;48.274;19.814;2023-04-24T02:00:43;98665.28;;;6.78
61390;BMP280;47260;48.274;19.814;2023-04-24T02:02:15;98655.28;;;6.79
61390;BMP280;47260;48.274;19.814;2023-04-24T02:03:46;98656.28;;;6.76
61390;BMP280;47260;48.274;19.814;2023-04-24T02:05:18;98651.59;;;6.65
61390;BMP280;47260;48.274;19.814;2023-04-24T02:06:50;98655.44;;;6.59
61390;BMP280;47260;48.274;19.814;2023-04-24T02:08:23;98642.06;;;6.47
61390;BMP280;47260;48.274;19.814;2023-04-24T02:09:55;98642.50;;;6.46
61390;BMP280;47260;48.274;19.814;2023-04-24T02:11:27;98647.41;;;6.47
61390;BMP280;47260;48.274;19.814;2023-04-24T02:12:58;98645.47;;;6.54
61390;BMP280;47260;48.274;19.814;2023-04-24T02:14:31;98645.06;;;6.61
61390;BMP280;47260;48.274;19.814;2023-04-24T02:16:02;98650.88;;;6.65
61390;BMP280;47260;48.274;19.814;2023-04-24T02:17:34;98646.25;;;6.65
61390;BMP280;47260;48.274;19.814;2023-04-24T02:19:08;98651.50;;;6.48
61390;BMP280;47260;48.274;19.814;2023-04-24T02:20:38;98643.00;;;6.44
61390;BMP280;47260;48.274;19.814;2023-04-24T02:22:10;98648.06;;;6.42
61390;BMP280;47260;48.274;19.814;2023-04-24T02:23:43;98635.25;;;6.46
61390;BMP280;47260;48.274;19.814;2023-04-24T02:25:17;98638.66;;;6.47
61390;BMP280;47260;48.274;19.814;2023-04-24T02:26:48;98638.91;;;6.49
61390;BMP280;47260;48.274;19.814;2023-04-24T02:28:20;98636.00;;;6.47
61390;BMP280;47260;48.274;19.814;2023-04-24T02:29:54;98644.00;;;6.53
61390;BMP280;47260;48.274;19.814;2023-04-24T02:31:26;98643.06;;;6.56
61390;BMP280;47260;48.274;19.814;2023-04-24T02:32:58;98635.31;;;6.58
61390;BMP280;47260;48.274;19.814;2023-04-24T02:34:30;98632.44;;;6.61
61390;BMP280;47260;48.274;19.814;2023-04-24T02:36:04;98628.56;;;6.62
61390;BMP280;47260;48.274;19.814;2023-04-24T02:37:35;98630.50;;;6.62
61390;BMP280;47260;48.274;19.814;2023-04-24T02:39:08;98628.31;;;6.60
61390;BMP280;47260;48.274;19.814;2023-04-24T02:40:40;98625.91;;;6.62
61390;BMP280;47260;48.274;19.814;2023-04-24T02:42:14;98627.09;;;6.67
61390;BMP280;47260;48.274;19.814;2023-04-24T02:43:45;98626.66;;;6.74
61390;BMP280;47260;48.274;19.814;2023-04-24T02:45:17;98622.59;;;6.78
61390;BMP280;47260;48.274;19.814;2023-04-24T02:46:48;98619.41;;;6.80
61390;BMP280;47260;48.274;19.814;2023-04-24T02:48:20;98618.72;;;6.85
61390;BMP280;47260;48.274;19.814;2023-04-24T02:49:52;98609.78;;;6.88
61390;BMP280;47260;48.274;19.814;2023-04-24T02:51:23;98619.50;;;6.96
61390;BMP280;47260;48.274;19.814;2023-04-24T02:52:55;98615.56;;;6.86
61390;BMP280;47260;48.274;19.814;2023-04-24T02:54:27;98609.94;;;6.79
61390;BMP280;47260;48.274;19.814;2023-04-24T02:55:59;98608.00;;;6.74
61390;BMP280;47260;48.274;19.814;2023-04-24T02:57:31;98604.81;;;6.64
61390;BMP280;47260;48.274;19.814;2023-04-24T02:59:03;98610.91;;;6.70
61390;BMP280;47260;48.274;19.814;2023-04-24T03:00:34;98607.66;;;6.50
61390;BMP280;47260;48.274;19.814;2023-04-24T03:02:06;98611.50;;;6.43
61390;BMP280;47260;48.274;19.814;2023-04-24T03:03:38;98610.22;;;6.33
61390;BMP280;47260;48.274;19.814;2023-04-24T03:05:10;98605.59;;;6.33
61390;BMP280;47260;48.274;19.814;2023-04-24T03:06:42;98605.56;;;6.22
61390;BMP280;47260;48.274;19.814;2023-04-24T03:08:13;98603.38;;;6.26
61390;BMP280;47260;48.274;19.814;2023-04-24T03:09:48;98602.69;;;6.31
61390;BMP280;47260;48.274;19.814;2023-04-24T03:11:19;98603.22;;;6.35
61390;BMP280;47260;48.274;19.814;2023-04-24T03:12:51;98602.03;;;6.42
61390;BMP280;47260;48.274;19.814;2023-04-24T03:14:22;98609.28;;;6.41
61390;BMP280;47260;48.274;19.814;2023-04-24T03:15:54;98595.50;;;6.43
61390;BMP280;47260;48.274;19.814;2023-04-24T03:17:25;98599.84;;;6.46
61390;BMP280;47260;48.274;19.814;2023-04-24T03:18:56;98607.66;;;6.50
61390;BMP280;47260;48.274;19.814;2023-04-24T03:20:30;98609.84;;;6.51
61390;BMP280;47260;48.274;19.814;2023-04-24T03:22:02;98605.72;;;6.50
61390;BMP280;47260;48.274;19.814;2023-04-24T03:23:35;98600.84;;;6.48
61390;BMP280;47260;48.274;19.814;2023-04-24T03:25:09;98601.84;;;6.57
61390;BMP280;47260;48.274;19.814;2023-04-24T03:26:41;98599.44;;;6.59
61390;BMP280;47260;48.274;19.814;2023-04-24T03:28:32;98596.09;;;6.64
61390;BMP280;47260;48.274;19.814;2023-04-24T03:30:08;98596.09;;;6.64
61390;BMP280;47260;48.274;19.814;2023-04-24T03:32:00;98592.72;;;6.63
61390;BMP280;47260;48.274;19.814;2023-04-24T03:33:32;98595.84;;;6.67
61390;BMP280;47260;48.274;19.814;2023-04-24T03:35:05;98596.63;;;6.73
61390;BMP280;47260;48.274;19.814;2023-04-24T03:36:37;98593.47;;;6.80
61390;BMP280;47260;48.274;19.814;2023-04-24T03:38:11;98592.31;;;6.87
61390;BMP280;47260;48.274;19.814;2023-04-24T03:39:43;98592.81;;;6.96
61390;BMP280;47260;48.274;19.814;2023-04-24T03:41:17;98603.50;;;7.02
61390;BMP280;47260;48.274;19.814;2023-04-24T03:43:02;98590.63;;;7.06
61390;BMP280;47260;48.274;19.814;2023-04-24T03:44:34;98593.84;;;7.10
61390;BMP280;47260;48.274;19.814;2023-04-24T03:46:06;98598.69;;;7.11
61390;BMP280;47260;48.274;19.814;2023-04-24T03:47:42;98596.50;;;7.15
61390;BMP280;47260;48.274;19.814;2023-04-24T03:49:13;98593.34;;;7.17
61390;BMP280;47260;48.274;19.814;2023-04-24T03:50:48;98597.25;;;7.21
61390;BMP280;47260;48.274;19.814;2023-04-24T03:52:19;98588.78;;;7.23
61390;BMP280;47260;48.274;19.814;2023-04-24T03:53:50;98584.63;;;7.22
61390;BMP280;47260;48.274;19.814;2023-04-24T03:55:25;98597.97;;;7.22
61390;BMP280;47260;48.274;19.814;2023-04-24T03:56:58;98598.47;;;7.32
61390;BMP280;47260;48.274;19.814;2023-04-24T03:58:32;98591.44;;;7.34
61390;BMP280;47260;48.274;19.814;2023-04-24T04:00:06;98591.94;;;7.44
61390;BMP280;47260;48.274;19.814;2023-04-24T04:01:45;98590.00;;;7.50
61390;BMP280;47260;48.274;19.814;2023-04-24T04:03:21;98591.72;;;7.58
61390;BMP280;47260;48.274;19.814;2023-04-24T04:04:53;98593.19;;;7.65
61390;BMP280;47260;48.274;19.814;2023-04-24T04:06:25;98589.78;;;7.75
61390;BMP280;47260;48.274;19.814;2023-04-24T04:07:58;98595.56;;;7.96
61390;BMP280;47260;48.274;19.814;2023-04-24T04:09:30;98588.78;;;7.95
61390;BMP280;47260;48.274;19.814;2023-04-24T04:11:03;98598.72;;;7.83
61390;BMP280;47260;48.274;19.814;2023-04-24T04:12:36;98584.19;;;7.90
61390;BMP280;47260;48.274;19.814;2023-04-24T04:14:07;98591.97;;;7.66
61390;BMP280;47260;48.274;19.814;2023-04-24T04:15:43;98593.38;;;7.61
61390;BMP280;47260;48.274;19.814;2023-04-24T04:17:15;98594.66;;;7.82
61390;BMP280;47260;48.274;19.814;2023-04-24T04:18:47;98586.84;;;7.84
61390;BMP280;47260;48.274;19.814;2023-04-24T04:20:19;98593.88;;;7.76
61390;BMP280;47260;48.274;19.814;2023-04-24T04:21:51;98584.91;;;7.79
61390;BMP280;47260;48.274;19.814;2023-04-24T04:23:37;98594.66;;;7.82
61390;BMP280;47260;48.274;19.814;2023-04-24T04:25:23;98595.09;;;7.86
61390;BMP280;47260;48.274;19.814;2023-04-24T04:26:55;98598.00;;;7.94
61390;BMP280;47260;48.274;19.814;2023-04-24T04:28:35;98600.94;;;8.01
61390;BMP280;47260;48.274;19.814;2023-04-24T04:30:08;98606.03;;;7.88
61390;BMP280;47260;48.274;19.814;2023-04-24T04:31:49;98601.91;;;7.87
61390;BMP280;47260;48.274;19.814;2023-04-24T04:33:21;98606.03;;;7.88
61390;BMP280;47260;48.274;19.814;2023-04-24T04:34:53;98602.16;;;7.95
61390;BMP280;47260;48.274;19.814;2023-04-24T04:36:25;98599.22;;;8.04
61390;BMP280;47260;48.274;19.814;2023-04-24T04:38:04;98598.97;;;7.96
61390;BMP280;47260;48.274;19.814;2023-04-24T04:39:52;98599.97;;;7.93
61390;BMP280;47260;48.274;19.814;2023-04-24T04:41:29;98593.16;;;7.98
61390;BMP280;47260;48.274;19.814;2023-04-24T04:43:01;98595.13;;;8.03
61390;BMP280;47260;48.274;19.814;2023-04-24T04:44:42;98595.84;;;7.98
61390;BMP280;47260;48.274;19.814;2023-04-24T04:46:20;98597.78;;;7.97
61390;BMP280;47260;48.274;19.814;2023-04-24T04:48:02;98594.38;;;8.08
61390;BMP280;47260;48.274;19.814;2023-04-24T04:49:35;98595.09;;;8.14
61390;BMP280;47260;48.274;19.814;2023-04-24T04:51:09;98583.13;;;8.26
61390;BMP280;47260;48.274;19.814;2023-04-24T04:52:41;98582.41;;;8.26
61390;BMP280;47260;48.274;19.814;2023-04-24T04:54:23;98590.69;;;8.28
61390;BMP280;47260;48.274;19.814;2023-04-24T04:55:55;98581.44;;;8.34
61390;BMP280;47260;48.274;19.814;2023-04-24T04:57:31;98581.16;;;8.38
61390;BMP280;47260;48.274;19.814;2023-04-24T04:59:03;98586.47;;;8.49
61390;BMP280;47260;48.274;19.814;2023-04-24T05:00:38;98572.31;;;8.59
61390;BMP280;47260;48.274;19.814;2023-04-24T05:02:29;98569.84;;;8.67
61390;BMP280;47260;48.274;19.814;2023-04-24T05:04:01;98567.41;;;8.69
61390;BMP280;47260;48.274;19.814;2023-04-24T05:05:32;98572.22;;;8.76
61390;BMP280;47260;48.274;19.814;2023-04-24T05:07:04;98571.25;;;8.79
61390;BMP280;47260;48.274;19.814;2023-04-24T05:08:39;98567.84;;;8.84
61390;BMP280;47260;48.274;19.814;2023-04-24T05:10:15;98560.28;;;8.88
61390;BMP280;47260;48.274;19.814;2023-04-24T05:11:47;98563.19;;;8.90
61390;BMP280;47260;48.274;19.814;2023-04-24T05:13:19;98563.22;;;8.84
61390;BMP280;47260;48.274;19.814;2023-04-24T05:14:51;98561.50;;;8.87
61390;BMP280;47260;48.274;19.814;2023-04-24T05:16:24;98561.25;;;8.90
61390;BMP280;47260;48.274;19.814;2023-04-24T05:17:58;98557.31;;;8.97
61390;BMP280;47260;48.274;19.814;2023-04-24T05:19:30;98553.66;;;9.00
61390;BMP280;47260;48.274;19.814;2023-04-24T05:21:03;98552.66;;;9.03
61390;BMP280;47260;48.274;19.814;2023-04-24T05:22:35;98557.25;;;9.08
61390;BMP280;47260;48.274;19.814;2023-04-24T05:24:07;98560.88;;;9.11
61390;BMP280;47260;48.274;19.814;2023-04-24T05:25:50;98553.78;;;9.13
61390;BMP280;47260;48.274;19.814;2023-04-24T05:27:24;98553.28;;;9.15
61390;BMP280;47260;48.274;19.814;2023-04-24T05:28:56;98550.84;;;9.17
61390;BMP280;47260;48.274;19.814;2023-04-24T05:30:27;98546.91;;;9.23
61390;BMP280;47260;48.274;19.814;2023-04-24T05:32:01;98551.75;;;9.30
61390;BMP280;47260;48.274;19.814;2023-04-24T05:33:34;98547.53;;;9.35
61390;BMP280;47260;48.274;19.814;2023-04-24T05:35:07;98548.50;;;9.37
61390;BMP280;47260;48.274;19.814;2023-04-24T05:36:40;98540.38;;;9.48
61390;BMP280;47260;48.274;19.814;2023-04-24T05:38:13;98538.94;;;9.47
61390;BMP280;47260;48.274;19.814;2023-04-24T05:39:48;98534.72;;;9.57
61390;BMP280;47260;48.274;19.814;2023-04-24T05:41:20;98544.47;;;9.79
61390;BMP280;47260;48.274;19.814;2023-04-24T05:42:52;98547.78;;;9.91
61390;BMP280;47260;48.274;19.814;2023-04-24T05:44:25;98539.72;;;10.15
61390;BMP280;47260;48.274;19.814;2023-04-24T05:45:56;98556.22;;;10.19
61390;BMP280;47260;48.274;19.814;2023-04-24T05:47:29;98551.28;;;10.28
61390;BMP280;47260;48.274;19.814;2023-04-24T05:49:02;98550.53;;;10.28
61390;BMP280;47260;48.274;19.814;2023-04-24T05:50:36;98546.84;;;10.31
61390;BMP280;47260;48.274;19.814;2023-04-24T05:52:07;98553.88;;;10.34
61390;BMP280;47260;48.274;19.814;2023-04-24T05:53:41;98552.84;;;10.37
61390;BMP280;47260;48.274;19.814;2023-04-24T05:55:14;98562.59;;;10.40
61390;BMP280;47260;48.274;19.814;2023-04-24T05:56:48;98570.78;;;10.47
61390;BMP280;47260;48.274;19.814;2023-04-24T05:58:28;98562.44;;;10.51
61390;BMP280;47260;48.274;19.814;2023-04-24T06:00:00;98553.31;;;10.41
61390;BMP280;47260;48.274;19.814;2023-04-24T06:01:33;98547.31;;;10.35
61390;BMP280;47260;48.274;19.814;2023-04-24T06:03:17;98542.63;;;10.35
61390;BMP280;47260;48.274;19.814;2023-04-24T06:04:48;98548.53;;;10.52
61390;BMP280;47260;48.274;19.814;2023-04-24T06:06:21;98544.91;;;10.50
61390;BMP280;47260;48.274;19.814;2023-04-24T06:07:53;98554.41;;;10.51
61390;BMP280;47260;48.274;19.814;2023-04-24T06:09:27;98548.31;;;10.50
61390;BMP280;47260;48.274;19.814;2023-04-24T06:10:59;98544.59;;;10.53
61390;BMP280;47260;48.274;19.814;2023-04-24T06:12:31;98543.88;;;10.53
61390;BMP280;47260;48.274;19.814;2023-04-24T06:14:07;98548.75;;;10.54
61390;BMP280;47260;48.274;19.814;2023-04-24T06:15:42;98536.78;;;10.55
61390;BMP280;47260;48.274;19.814;2023-04-24T06:17:24;98539.47;;;10.55
61390;BMP280;47260;48.274;19.814;2023-04-24T06:18:57;98537.50;;;10.56
61390;BMP280;47260;48.274;19.814;2023-04-24T06:20:29;98532.56;;;10.60
61390;BMP280;47260;48.274;19.814;2023-04-24T06:22:00;98527.03;;;10.71
61390;BMP280;47260;48.274;19.814;2023-04-24T06:23:32;98528.72;;;10.74
61390;BMP280;47260;48.274;19.814;2023-04-24T06:25:05;98527.78;;;10.71
61390;BMP280;47260;48.274;19.814;2023-04-24T06:26:37;98526.56;;;10.72
61390;BMP280;47260;48.274;19.814;2023-04-24T06:28:12;98527.16;;;10.78
61390;BMP280;47260;48.274;19.814;2023-04-24T06:29:44;98530.44;;;10.90
61390;BMP280;47260;48.274;19.814;2023-04-24T06:31:15;98527.34;;;10.99
61390;BMP280;47260;48.274;19.814;2023-04-24T06:32:47;98527.00;;;11.08
61390;BMP280;47260;48.274;19.814;2023-04-24T06:34:21;98529.28;;;11.17
61390;BMP280;47260;48.274;19.814;2023-04-24T06:35:52;98536.00;;;11.24
61390;BMP280;47260;48.274;19.814;2023-04-24T06:37:24;98539.84;;;11.28
61390;BMP280;47260;48.274;19.814;2023-04-24T06:38:56;98531.28;;;11.30
61390;BMP280;47260;48.274;19.814;2023-04-24T06:40:28;98540.69;;;11.36
61390;BMP280;47260;48.274;19.814;2023-04-24T06:41:59;98543.47;;;11.31
61390;BMP280;47260;48.274;19.814;2023-04-24T06:43:31;98549.16;;;11.27
61390;BMP280;47260;48.274;19.814;2023-04-24T06:45:03;98545.44;;;11.30
61390;BMP280;47260;48.274;19.814;2023-04-24T06:46:35;98545.94;;;11.29
61390;BMP280;47260;48.274;19.814;2023-04-24T06:48:07;98547.22;;;11.28
61390;BMP280;47260;48.274;19.814;2023-04-24T06:49:40;98556.28;;;11.25
61390;BMP280;47260;48.274;19.814;2023-04-24T06:51:12;98553.81;;;11.27
61390;BMP280;47260;48.274;19.814;2023-04-24T06:52:44;98554.81;;;11.24
61390;BMP280;47260;48.274;19.814;2023-04-24T06:54:16;98553.59;;;11.25
61390;BMP280;47260;48.274;19.814;2023-04-24T06:55:47;98555.53;;;11.24
61390;BMP280;47260;48.274;19.814;2023-04-24T06:57:19;98555.75;;;11.26
61390;BMP280;47260;48.274;19.814;2023-04-24T06:58:51;98554.94;;;11.31
61390;BMP280;47260;48.274;19.814;2023-04-24T07:00:23;98564.59;;;11.40
61390;BMP280;47260;48.274;19.814;2023-04-24T07:01:56;98554.19;;;11.31
61390;BMP280;47260;48.274;19.814;2023-04-24T07:03:27;98547.69;;;11.26
61390;BMP280;47260;48.274;19.814;2023-04-24T07:05:00;98548.44;;;11.27
61390;BMP280;47260;48.274;19.814;2023-04-24T07:06:32;98542.84;;;11.25
61390;BMP280;47260;48.274;19.814;2023-04-24T07:08:06;98547.16;;;11.15
61390;BMP280;47260;48.274;19.814;2023-04-24T07:09:38;98550.44;;;11.08
61390;BMP280;47260;48.274;19.814;2023-04-24T07:11:12;98548.78;;;11.05
61390;BMP280;47260;48.274;19.814;2023-04-24T07:12:44;98549.16;;;11.27
61390;BMP280;47260;48.274;19.814;2023-04-24T07:14:17;98547.09;;;11.33
61390;BMP280;47260;48.274;19.814;2023-04-24T07:15:48;98534.06;;;11.24
61390;BMP280;47260;48.274;19.814;2023-04-24T07:17:21;98540.13;;;11.12
61390;BMP280;47260;48.274;19.814;2023-04-24T07:18:52;98530.72;;;11.18
61390;BMP280;47260;48.274;19.814;2023-04-24T07:20:25;98532.91;;;11.20
61390;BMP280;47260;48.274;19.814;2023-04-24T07:21:57;98539.84;;;11.28
61390;BMP280;47260;48.274;19.814;2023-04-24T07:23:29;98542.44;;;11.34
61390;BMP280;47260;48.274;19.814;2023-04-24T07:25:01;98540.19;;;11.38
61390;BMP280;47260;48.274;19.814;2023-04-24T07:26:33;98546.38;;;11.46
61390;BMP280;47260;48.274;19.814;2023-04-24T07:28:05;98547.56;;;11.50
61390;BMP280;47260;48.274;19.814;2023-04-24T07:29:36;98550.56;;;11.60
61390;BMP280;47260;48.274;19.814;2023-04-24T07:31:08;98549.75;;;11.65
61390;BMP280;47260;48.274;19.814;2023-04-24T07:32:40;98549.03;;;11.64
61390;BMP280;47260;48.274;19.814;2023-04-24T07:34:12;98555.63;;;11.76
61390;BMP280;47260;48.274;19.814;2023-04-24T07:35:45;98545.41;;;11.75
61390;BMP280;47260;48.274;19.814;2023-04-24T07:37:16;98544.59;;;11.80
61390;BMP280;47260;48.274;19.814;2023-04-24T07:38:48;98554.31;;;11.83
61390;BMP280;47260;48.274;19.814;2023-04-24T07:40:21;98552.84;;;11.82
61390;BMP280;47260;48.274;19.814;2023-04-24T07:41:53;98554.50;;;11.85
61390;BMP280;47260;48.274;19.814;2023-04-24T07:43:24;98562.06;;;11.73
61390;BMP280;47260;48.274;19.814;2023-04-24T07:44:56;98563.31;;;11.72
61390;BMP280;47260;48.274;19.814;2023-04-24T07:46:30;98564.22;;;11.62
61390;BMP280;47260;48.274;19.814;2023-04-24T07:48:02;98565.03;;;11.57
61390;BMP280;47260;48.274;19.814;2023-04-24T07:49:34;98563.56;;;11.56
61390;BMP280;47260;48.274;19.814;2023-04-24T07:51:07;98558.81;;;11.49
61390;BMP280;47260;48.274;19.814;2023-04-24T07:52:40;98565.66;;;11.50
61390;BMP280;47260;48.274;19.814;2023-04-24T07:54:12;98561.00;;;11.50
61390;BMP280;47260;48.274;19.814;2023-04-24T07:55:44;98566.31;;;11.37
61390;BMP280;47260;48.274;19.814;2023-04-24T07:57:15;98566.41;;;11.32
61390;BMP280;47260;48.274;19.814;2023-04-24T07:58:47;98559.56;;;11.31
61390;BMP280;47260;48.274;19.814;2023-04-24T08:00:20;98563.22;;;11.33
61390;BMP280;47260;48.274;19.814;2023-04-24T08:01:51;98568.59;;;11.33
61390;BMP280;47260;48.274;19.814;2023-04-24T08:03:24;98571.50;;;11.35
61390;BMP280;47260;48.274;19.814;2023-04-24T08:04:56;98574.59;;;11.39
61390;BMP280;47260;48.274;19.814;2023-04-24T08:06:29;98568.72;;;11.41
61390;BMP280;47260;48.274;19.814;2023-04-24T08:08:02;98573.72;;;11.50
61390;BMP280;47260;48.274;19.814;2023-04-24T08:09:33;98567.72;;;11.57
61390;BMP280;47260;48.274;19.814;2023-04-24T08:11:05;98561.19;;;11.52
61390;BMP280;47260;48.274;19.814;2023-04-24T08:12:37;98566.88;;;11.49
61390;BMP280;47260;48.274;19.814;2023-04-24T08:14:09;98569.56;;;11.49
61390;BMP280;47260;48.274;19.814;2023-04-24T08:15:42;98569.44;;;11.41
61390;BMP280;47260;48.274;19.814;2023-04-24T08:17:14;98565.31;;;11.40
61390;BMP280;47260;48.274;19.814;2023-04-24T08:18:46;98549.28;;;11.35
61390;BMP280;47260;48.274;19.814;2023-04-24T08:20:18;98550.63;;;11.41
61390;BMP280;47260;48.274;19.814;2023-04-24T08:21:51;98552.28;;;11.44
61390;BMP280;47260;48.274;19.814;2023-04-24T08:23:22;98546.19;;;11.44
61390;BMP280;47260;48.274;19.814;2023-04-24T08:24:54;98551.88;;;11.40
61390;BMP280;47260;48.274;19.814;2023-04-24T08:26:26;98550.41;;;11.39
61390;BMP280;47260;48.274;19.814;2023-04-24T08:27:58;98551.16;;;11.40
61390;BMP280;47260;48.274;19.814;2023-04-24T08:29:29;98550.59;;;11.28
61390;BMP280;47260;48.274;19.814;2023-04-24T08:31:01;98545.84;;;11.21
61390;BMP280;47260;48.274;19.814;2023-04-24T08:32:33;98535.88;;;11.16
61390;BMP280;47260;48.274;19.814;2023-04-24T08:34:04;98530.31;;;11.14
61390;BMP280;47260;48.274;19.814;2023-04-24T08:35:36;98530.63;;;11.11
61390;BMP280;47260;48.274;19.814;2023-04-24T08:37:09;98532.16;;;11.06
61390;BMP280;47260;48.274;19.814;2023-04-24T08:38:42;98538.91;;;10.94
61390;BMP280;47260;48.274;19.814;2023-04-24T08:40:16;98538.56;;;10.84
61390;BMP280;47260;48.274;19.814;2023-04-24T08:41:48;98539.72;;;10.89
61390;BMP280;47260;48.274;19.814;2023-04-24T08:43:21;98542.06;;;10.79
61390;BMP280;47260;48.274;19.814;2023-04-24T08:44:54;98542.94;;;10.88
61390;BMP280;47260;48.274;19.814;2023-04-24T08:46:26;98544.00;;;10.79
61390;BMP280;47260;48.274;19.814;2023-04-24T08:47:58;98536.19;;;10.81
61390;BMP280;47260;48.274;19.814;2023-04-24T08:49:32;98541.34;;;10.79
61390;BMP280;47260;48.274;19.814;2023-04-24T08:51:07;98537.44;;;10.80
61390;BMP280;47260;48.274;19.814;2023-04-24T08:52:41;98540.09;;;10.80